MAPA DE AEROPUERTO

INFORMACIÓN METAR y TAF

METAR FOR ENBR
ADDS - METARS form results

(1807 UTC 23 October 2021)
Data provider http://aviationweather.gov/metar/data/
 
METAR text: ENBR 231750Z 15015KT 9999 SCT034 BKN049 08/03 Q1017 NOSIG RMK WIND 1200FT 14026KT
Conditions at: ENBR (BERGEN/FLESLAND , NO) observed 1750 UTC 23 October 2021
Temperature: 8.0°C (46°F)
Dewpoint: 3.0°C (37°F) [RH = 71%]
Pressure (altimeter): 30.03 inches Hg (1017.0 mb)
Winds: from the SSE (150 degrees) at 17 MPH (15 knots; 7.7 m/s)
Visibility: 6 or more miles (10+ km)
Ceiling: 4900 feet AGL
Clouds: scattered clouds at 3400 feet AGL
broken clouds at 4900 feet AGL
Weather: no significant weather observed at this time

METAR text: ENBR 231720Z 14015KT 9999 SCT032 BKN044 08/03 Q1018 NOSIG RMK WIND 1200FT 14025KT
Conditions at: ENBR (BERGEN/FLESLAND , NO) observed 1720 UTC 23 October 2021
Temperature: 8.0°C (46°F)
Dewpoint: 3.0°C (37°F) [RH = 71%]
Pressure (altimeter): 30.06 inches Hg (1018.0 mb)
Winds: from the SE (140 degrees) at 17 MPH (15 knots; 7.7 m/s)
Visibility: 6 or more miles (10+ km)
Ceiling: 4400 feet AGL
Clouds: scattered clouds at 3200 feet AGL
broken clouds at 4400 feet AGL
Weather: no significant weather observed at this time

Forecast for: ENBR (BERGEN/FLESLAND , NO)
Text: TAF ENBR 2318/2418 15018KT 9999 FEW020 BKN040
Forecast period: 1800 to 2100 UTC 23 October 2021
Forecast type: FROM: standard forecast or significant change
Winds: from the SSE (150 degrees) at 21 MPH (18 knots; 9.3 m/s)
Visibility: 6 or more miles (10+ km)
Ceiling: 4000 feet AGL
Clouds: few clouds at 2000 feet AGL
broken clouds at 4000 feet AGL
Weather: no significant weather forecast for this period
Text: BECMG 2321/2323 BKN012
Forecast period: 2100 UTC 23 October 2021 to 0900 UTC 24 October 2021
Forecast type: BECOMING: Conditions expected to become as follows by 2300 UTC 23 October 2021
Winds: from the SSE (150 degrees) at 21 MPH (18 knots; 9.3 m/s)
Visibility: 6 or more miles (10+ km)
Ceiling: 1200 feet AGL
Clouds: broken clouds at 1200 feet AGL
Weather: no significant weather forecast for this period
Text: TEMPO 2402/2418 4000 RADZ BR BKN007
Forecast period: 0200 to 1800 UTC 24 October 2021
Forecast type: TEMPORARY: The following changes expected for less than half the time period
Visibility: 2.49 miles (4.01 km)
Ceiling: 700 feet AGL
Clouds: broken clouds at 700 feet AGL
Weather: RA DZ BR  (moderate rain, moderate drizzle, mist)
Text: BECMG 2409/2411 17025G35KT
Forecast period: 0900 to 1800 UTC 24 October 2021
Forecast type: BECOMING: Conditions expected to become as follows by 1100 UTC 24 October 2021
Winds: from the S (170 degrees) at 29 MPH (25 knots; 12.9 m/s)
gusting to 40 MPH (35 knots; 18.0 m/s)
Visibility: 6 or more miles (10+ km)
Ceiling: 1200 feet AGL
Clouds: broken clouds at 1200 feet AGL
Weather: no significant weather forecast for this period